Time,TemperatureF,DewpointF,PressureIn,WindDirection,WindDirectionDegrees,WindSpeedMPH,WindSpeedGustMPH,Humidity,HourlyPrecipIn,Conditions,Clouds,dailyrainin,SolarRadiationWatts/m^2,SoftwareType,DateUTC
2013-01-05 00:00:00,25.3,20.6,30.27,NNE,19,0.0,0.0,82,0.00,,,0.00,0,WeatherTracker,2013-01-05 05:00:00,
2013-01-05 00:01:00,25.3,20.6,30.27,NNE,19,0.0,0.0,82,0.00,,,0.00,0,WeatherTracker,2013-01-05 05:01:00,
2013-01-05 00:06:00,25.1,20.7,30.26,NNE,19,0.0,0.0,83,0.00,,,0.00,0,WeatherTracker,2013-01-05 05:06:00,
2013-01-05 00:11:00,24.8,20.4,30.26,NNE,19,0.0,0.0,83,0.00,,,0.00,0,WeatherTracker,2013-01-05 05:11:00,
2013-01-05 00:16:00,24.8,20.4,30.25,NNE,19,0.0,0.0,83,0.00,,,0.00,0,WeatherTracker,2013-01-05 05:16:00,
2013-01-05 00:21:00,24.9,20.2,30.25,NNE,19,0.0,0.0,82,0.00,,,0.00,0,WeatherTracker,2013-01-05 05:21:00,
2013-01-05 00:26:00,24.9,20.5,30.25,NNE,19,0.0,0.0,83,0.00,,,0.00,0,WeatherTracker,2013-01-05 05:26:00,
2013-01-05 00:31:00,24.8,20.4,30.24,NNE,19,0.0,0.0,83,0.00,,,0.00,0,WeatherTracker,2013-01-05 05:31:00,
2013-01-05 00:36:00,24.7,20.6,30.24,NNE,19,1.0,0.0,84,0.00,,,0.00,0,WeatherTracker,2013-01-05 05:36:00,
2013-01-05 00:41:00,24.7,19.7,30.23,NNW,338,0.0,0.0,81,0.00,,,0.00,0,WeatherTracker,2013-01-05 05:41:00,
2013-01-05 00:46:00,25.0,20.0,30.24,ENE,68,0.0,0.0,81,0.00,,,0.00,0,WeatherTracker,2013-01-05 05:46:00,
2013-01-05 00:51:00,25.5,20.2,30.25,NW,309,0.0,0.0,80,0.00,,,0.00,0,WeatherTracker,2013-01-05 05:51:00,
2013-01-05 00:56:00,25.8,19.6,30.26,NNW,342,0.0,0.0,77,0.00,,,0.00,0,WeatherTracker,2013-01-05 05:56:00,
2013-01-05 01:01:00,26.2,19.7,30.25,ENE,67,2.0,0.0,76,0.00,,,0.00,0,WeatherTracker,2013-01-05 06:01:00,
2013-01-05 01:06:00,26.6,19.8,30.25,North,360,0.0,0.0,75,0.00,,,0.00,0,WeatherTracker,2013-01-05 06:06:00,
2013-01-05 01:11:00,26.9,19.7,30.25,WSW,255,1.0,0.0,74,0.00,,,0.00,0,WeatherTracker,2013-01-05 06:11:00,
2013-01-05 01:16:00,27.0,19.5,30.24,ESE,109,1.0,0.0,73,0.00,,,0.00,0,WeatherTracker,2013-01-05 06:16:00,
2013-01-05 01:21:00,27.2,19.4,30.25,ENE,67,0.0,0.0,72,0.00,,,0.00,0,WeatherTracker,2013-01-05 06:21:00,
2013-01-05 01:26:00,27.3,19.8,30.24,North,360,2.0,0.0,73,0.00,,,0.00,0,WeatherTracker,2013-01-05 06:26:00,
2013-01-05 01:32:00,27.3,19.5,30.25,North,355,0.0,0.0,72,0.00,,,0.00,0,WeatherTracker,2013-01-05 06:32:00,
2013-01-05 01:37:00,27.5,19.4,30.25,West,263,0.0,0.0,71,0.00,,,0.00,0,WeatherTracker,2013-01-05 06:37:00,
2013-01-05 01:42:00,27.6,19.4,30.25,ENE,78,0.0,0.0,71,0.00,,,0.00,0,WeatherTracker,2013-01-05 06:42:00,
2013-01-05 01:47:00,27.6,19.4,30.25,NE,38,1.0,0.0,71,0.00,,,0.00,0,WeatherTracker,2013-01-05 06:47:00,
2013-01-05 01:52:00,27.5,19.4,30.26,NNW,329,0.0,0.0,71,0.00,,,0.00,0,WeatherTracker,2013-01-05 06:52:00,
2013-01-05 01:57:00,27.5,20.9,30.25,NNW,338,1.0,0.0,76,0.00,,,0.00,0,WeatherTracker,2013-01-05 06:57:00,
2013-01-05 02:02:00,27.5,19.7,30.25,ENE,64,1.0,0.0,72,0.00,,,0.00,0,WeatherTracker,2013-01-05 07:02:00,
2013-01-05 02:07:00,27.4,19.3,30.25,NW,326,4.0,0.0,71,0.00,,,0.00,0,WeatherTracker,2013-01-05 07:07:00,
2013-01-05 02:12:00,27.4,19.3,30.25,East,91,0.0,0.0,71,0.00,,,0.00,0,WeatherTracker,2013-01-05 07:12:00,
2013-01-05 02:17:00,27.3,19.2,30.25,ENE,78,0.0,0.0,71,0.00,,,0.00,0,WeatherTracker,2013-01-05 07:17:00,
2013-01-05 02:22:00,27.2,19.4,30.25,NW,307,0.0,0.0,72,0.00,,,0.00,0,WeatherTracker,2013-01-05 07:22:00,
2013-01-05 02:27:00,27.2,19.1,30.25,NW,307,2.0,0.0,71,0.00,,,0.00,0,WeatherTracker,2013-01-05 07:27:00,
2013-01-05 02:32:00,27.1,19.0,30.25,NW,307,0.0,0.0,71,0.00,,,0.00,0,WeatherTracker,2013-01-05 07:32:00,
2013-01-05 02:37:00,27.0,18.9,30.26,WNW,296,0.0,0.0,71,0.00,,,0.00,0,WeatherTracker,2013-01-05 07:37:00,
2013-01-05 02:43:00,27.0,18.9,30.26,WNW,300,0.0,0.0,71,0.00,,,0.00,0,WeatherTracker,2013-01-05 07:43:00,
2013-01-05 02:48:00,26.9,19.7,30.25,WNW,299,0.0,0.0,74,0.00,,,0.00,0,WeatherTracker,2013-01-05 07:48:00,
2013-01-05 02:53:00,26.7,18.9,30.25,NNW,328,0.0,0.0,72,0.00,,,0.00,0,WeatherTracker,2013-01-05 07:53:00,
2013-01-05 02:58:00,26.5,19.0,30.25,NNW,327,0.0,0.0,73,0.00,,,0.00,0,WeatherTracker,2013-01-05 07:58:00,
2013-01-05 03:03:00,26.3,19.2,30.25,West,268,0.0,0.0,74,0.00,,,0.00,0,WeatherTracker,2013-01-05 08:03:00,
2013-01-05 03:08:00,26.0,19.2,30.25,West,268,0.0,0.0,75,0.00,,,0.00,0,WeatherTracker,2013-01-05 08:08:00,
2013-01-05 03:13:00,25.7,18.6,30.26,West,267,0.0,0.0,74,0.00,,,0.00,0,WeatherTracker,2013-01-05 08:13:00,
2013-01-05 03:18:00,25.6,18.8,30.26,South,181,0.0,0.0,75,0.00,,,0.00,0,WeatherTracker,2013-01-05 08:18:00,
2013-01-05 03:23:00,25.6,19.4,30.26,South,182,0.0,0.0,77,0.00,,,0.00,0,WeatherTracker,2013-01-05 08:23:00,
2013-01-05 03:28:00,25.4,18.9,30.26,South,182,0.0,0.0,76,0.00,,,0.00,0,WeatherTracker,2013-01-05 08:28:00,
2013-01-05 03:33:00,25.4,19.2,30.26,South,182,0.0,0.0,77,0.00,,,0.00,0,WeatherTracker,2013-01-05 08:33:00,
2013-01-05 03:38:00,25.2,19.0,30.26,South,182,0.0,0.0,77,0.00,,,0.00,0,WeatherTracker,2013-01-05 08:38:00,
2013-01-05 03:43:00,25.2,19.3,30.26,South,182,0.0,0.0,78,0.00,,,0.00,0,WeatherTracker,2013-01-05 08:43:00,
2013-01-05 03:48:00,24.9,19.0,30.25,South,182,0.0,0.0,78,0.00,,,0.00,0,WeatherTracker,2013-01-05 08:48:00,
2013-01-05 03:53:00,24.9,19.0,30.25,South,182,0.0,0.0,78,0.00,,,0.00,0,WeatherTracker,2013-01-05 08:53:00,
2013-01-05 03:59:00,24.7,19.1,30.25,South,181,0.0,0.0,79,0.00,,,0.00,0,WeatherTracker,2013-01-05 08:59:00,
2013-01-05 04:04:00,24.6,19.0,30.25,South,180,0.0,0.0,79,0.00,,,0.00,0,WeatherTracker,2013-01-05 09:04:00,
2013-01-05 04:09:00,24.5,18.9,30.25,South,182,0.0,0.0,79,0.00,,,0.00,0,WeatherTracker,2013-01-05 09:09:00,
2013-01-05 04:14:00,24.4,19.1,30.25,South,184,0.0,0.0,80,0.00,,,0.00,0,WeatherTracker,2013-01-05 09:14:00,
2013-01-05 04:19:00,24.3,19.3,30.25,South,183,0.0,0.0,81,0.00,,,0.00,0,WeatherTracker,2013-01-05 09:19:00,
2013-01-05 04:24:00,24.4,19.1,30.25,South,184,0.0,0.0,80,0.00,,,0.00,0,WeatherTracker,2013-01-05 09:24:00,
2013-01-05 04:29:00,24.3,19.0,30.25,South,184,0.0,0.0,80,0.00,,,0.00,0,WeatherTracker,2013-01-05 09:29:00,
2013-01-05 04:34:00,24.3,19.3,30.24,South,184,0.0,0.0,81,0.00,,,0.00,0,WeatherTracker,2013-01-05 09:34:00,
2013-01-05 04:39:00,24.0,19.0,30.24,South,183,0.0,0.0,81,0.00,,,0.00,0,WeatherTracker,2013-01-05 09:39:00,
2013-01-05 04:44:00,23.7,18.7,30.24,South,184,0.0,0.0,81,0.00,,,0.00,0,WeatherTracker,2013-01-05 09:44:00,
2013-01-05 04:49:00,23.7,18.7,30.24,South,183,0.0,0.0,81,0.00,,,0.00,0,WeatherTracker,2013-01-05 09:49:00,
2013-01-05 04:54:00,23.6,18.9,30.24,South,183,0.0,0.0,82,0.00,,,0.00,0,WeatherTracker,2013-01-05 09:54:00,
2013-01-05 04:59:00,23.5,19.1,30.24,South,183,0.0,0.0,83,0.00,,,0.00,0,WeatherTracker,2013-01-05 09:59:00,
2013-01-05 05:04:00,23.5,19.1,30.24,South,184,0.0,0.0,83,0.00,,,0.00,0,WeatherTracker,2013-01-05 10:04:00,
2013-01-05 05:09:00,23.4,18.7,30.24,South,183,0.0,0.0,82,0.00,,,0.00,0,WeatherTracker,2013-01-05 10:09:00,
2013-01-05 05:14:00,23.3,18.9,30.25,South,184,0.0,0.0,83,0.00,,,0.00,0,WeatherTracker,2013-01-05 10:14:00,
2013-01-05 05:19:00,23.3,18.9,30.25,South,184,0.0,0.0,83,0.00,,,0.00,0,WeatherTracker,2013-01-05 10:19:00,
2013-01-05 05:24:00,23.4,18.7,30.25,South,184,0.0,0.0,82,0.00,,,0.00,0,WeatherTracker,2013-01-05 10:24:00,
2013-01-05 05:29:00,23.4,19.0,30.25,South,184,0.0,0.0,83,0.00,,,0.00,0,WeatherTracker,2013-01-05 10:29:00,
2013-01-05 05:34:00,23.4,19.0,30.24,South,184,0.0,0.0,83,0.00,,,0.00,0,WeatherTracker,2013-01-05 10:34:00,
2013-01-05 05:39:00,23.3,18.9,30.24,South,184,0.0,0.0,83,0.00,,,0.00,0,WeatherTracker,2013-01-05 10:39:00,
2013-01-05 05:45:00,23.0,18.6,30.24,South,183,0.0,0.0,83,0.00,,,0.00,0,WeatherTracker,2013-01-05 10:45:00,
2013-01-05 05:50:00,23.0,18.6,30.24,South,183,0.0,0.0,83,0.00,,,0.00,0,WeatherTracker,2013-01-05 10:50:00,
2013-01-05 05:55:00,22.9,18.5,30.24,South,184,0.0,0.0,83,0.00,,,0.00,0,WeatherTracker,2013-01-05 10:55:00,
2013-01-05 06:00:00,23.1,18.7,30.25,South,184,0.0,0.0,83,0.00,,,0.00,0,WeatherTracker,2013-01-05 11:00:00,
2013-01-05 06:05:00,23.1,18.7,30.25,South,183,0.0,0.0,83,0.00,,,0.00,0,WeatherTracker,2013-01-05 11:05:00,
2013-01-05 06:10:00,23.2,19.1,30.25,South,184,0.0,0.0,84,0.00,,,0.00,0,WeatherTracker,2013-01-05 11:10:00,
2013-01-05 06:15:00,23.3,19.2,30.25,South,183,0.0,0.0,84,0.00,,,0.00,0,WeatherTracker,2013-01-05 11:15:00,
2013-01-05 06:20:00,23.2,18.8,30.25,South,183,0.0,0.0,83,0.00,,,0.00,0,WeatherTracker,2013-01-05 11:20:00,
2013-01-05 06:25:00,23.3,18.9,30.25,South,183,0.0,0.0,83,0.00,,,0.00,0,WeatherTracker,2013-01-05 11:25:00,
2013-01-05 06:30:00,23.3,18.9,30.25,South,183,0.0,0.0,83,0.00,,,0.00,0,WeatherTracker,2013-01-05 11:30:00,
2013-01-05 06:35:00,23.3,18.9,30.25,South,184,0.0,0.0,83,0.00,,,0.00,0,WeatherTracker,2013-01-05 11:35:00,
2013-01-05 06:40:00,23.3,18.9,30.25,South,183,0.0,0.0,83,0.00,,,0.00,0,WeatherTracker,2013-01-05 11:40:00,
2013-01-05 06:45:00,23.3,19.2,30.26,South,183,0.0,0.0,84,0.00,,,0.00,0,WeatherTracker,2013-01-05 11:45:00,
2013-01-05 06:50:00,23.3,19.2,30.26,South,183,0.0,0.0,84,0.00,,,0.00,0,WeatherTracker,2013-01-05 11:50:00,
2013-01-05 06:55:00,23.3,18.9,30.26,South,184,0.0,0.0,83,0.00,,,0.00,0,WeatherTracker,2013-01-05 11:55:00,
2013-01-05 07:00:00,23.3,19.2,30.26,South,184,0.0,0.0,84,0.00,,,0.00,0,WeatherTracker,2013-01-05 12:00:00,
2013-01-05 07:05:00,23.4,19.0,30.26,South,184,0.0,0.0,83,0.00,,,0.00,0,WeatherTracker,2013-01-05 12:05:00,
2013-01-05 07:10:00,23.4,19.0,30.27,South,183,0.0,0.0,83,0.00,,,0.00,0,WeatherTracker,2013-01-05 12:10:00,
2013-01-05 07:15:00,23.4,19.0,30.27,South,183,0.0,0.0,83,0.00,,,0.00,0,WeatherTracker,2013-01-05 12:15:00,
2013-01-05 07:20:00,23.4,19.3,30.27,South,183,0.0,0.0,84,0.00,,,0.00,0,WeatherTracker,2013-01-05 12:20:00,
2013-01-05 07:25:00,23.5,19.4,30.27,South,183,0.0,0.0,84,0.00,,,0.00,0,WeatherTracker,2013-01-05 12:25:00,
2013-01-05 07:30:00,23.5,19.4,30.27,South,183,0.0,0.0,84,0.00,,,0.00,0,WeatherTracker,2013-01-05 12:30:00,
2013-01-05 07:35:00,23.4,19.0,30.27,South,184,0.0,0.0,83,0.00,,,0.00,5,WeatherTracker,2013-01-05 12:35:00,
2013-01-05 07:40:00,23.5,19.4,30.27,South,184,0.0,0.0,84,0.00,,,0.00,5,WeatherTracker,2013-01-05 12:40:00,
2013-01-05 07:46:00,23.4,19.0,30.27,South,184,0.0,0.0,83,0.00,,,0.00,9,WeatherTracker,2013-01-05 12:46:00,
2013-01-05 07:51:00,23.4,19.0,30.27,South,184,0.0,0.0,83,0.00,,,0.00,16,WeatherTracker,2013-01-05 12:51:00,
2013-01-05 07:56:00,23.5,19.4,30.27,South,184,0.0,0.0,84,0.00,,,0.00,18,WeatherTracker,2013-01-05 12:56:00,
2013-01-05 08:01:00,23.6,19.5,30.28,South,183,0.0,0.0,84,0.00,,,0.00,19,WeatherTracker,2013-01-05 13:01:00,
2013-01-05 08:06:00,23.8,19.7,30.28,South,184,0.0,0.0,84,0.00,,,0.00,23,WeatherTracker,2013-01-05 13:06:00,
2013-01-05 08:11:00,23.9,20.1,30.29,South,184,0.0,0.0,85,0.00,,,0.00,26,WeatherTracker,2013-01-05 13:11:00,
2013-01-05 08:16:00,24.0,20.2,30.29,South,183,0.0,0.0,85,0.00,,,0.00,33,WeatherTracker,2013-01-05 13:16:00,
2013-01-05 08:21:00,24.2,20.4,30.29,South,184,0.0,0.0,85,0.00,,,0.00,42,WeatherTracker,2013-01-05 13:21:00,
2013-01-05 08:26:00,24.4,20.6,30.28,South,183,0.0,0.0,85,0.00,,,0.00,39,WeatherTracker,2013-01-05 13:26:00,
2013-01-05 08:31:00,24.7,20.8,30.28,South,184,0.0,0.0,85,0.00,,,0.00,51,WeatherTracker,2013-01-05 13:31:00,
2013-01-05 08:36:00,25.0,21.1,30.28,South,183,0.0,0.0,85,0.00,,,0.00,58,WeatherTracker,2013-01-05 13:36:00,
2013-01-05 08:41:00,25.4,21.5,30.28,South,184,0.0,0.0,85,0.00,,,0.00,65,WeatherTracker,2013-01-05 13:41:00,
2013-01-05 08:46:00,25.8,21.9,30.28,South,184,0.0,0.0,85,0.00,,,0.00,62,WeatherTracker,2013-01-05 13:46:00,
2013-01-05 08:51:00,26.3,22.4,30.29,South,184,0.0,0.0,85,0.00,,,0.00,76,WeatherTracker,2013-01-05 13:51:00,
2013-01-05 08:56:00,26.7,22.2,30.29,South,183,0.0,0.0,83,0.00,,,0.00,90,WeatherTracker,2013-01-05 13:56:00,
2013-01-05 09:01:00,27.1,22.6,30.29,South,184,0.0,0.0,83,0.00,,,0.00,72,WeatherTracker,2013-01-05 14:01:00,
2013-01-05 09:06:00,27.5,22.2,30.28,South,184,0.0,0.0,80,0.00,,,0.00,70,WeatherTracker,2013-01-05 14:06:00,
2013-01-05 09:11:00,27.8,22.2,30.28,South,183,0.0,0.0,79,0.00,,,0.00,62,WeatherTracker,2013-01-05 14:11:00,
2013-01-05 09:16:00,28.1,22.1,30.29,South,184,0.0,0.0,78,0.00,,,0.00,107,WeatherTracker,2013-01-05 14:16:00,
2013-01-05 09:22:00,28.5,22.5,30.29,South,184,0.0,0.0,78,0.00,,,0.00,83,WeatherTracker,2013-01-05 14:22:00,
2013-01-05 09:27:00,28.8,22.8,30.29,South,183,0.0,0.0,78,0.00,,,0.00,88,WeatherTracker,2013-01-05 14:27:00,
2013-01-05 09:32:00,28.9,21.4,30.29,South,183,0.0,0.0,73,0.00,,,0.00,98,WeatherTracker,2013-01-05 14:32:00,
2013-01-05 09:37:00,29.3,21.7,30.29,South,184,0.0,0.0,73,0.00,,,0.00,95,WeatherTracker,2013-01-05 14:37:00,
2013-01-05 09:42:00,29.8,21.6,30.29,South,184,0.0,0.0,71,0.00,,,0.00,91,WeatherTracker,2013-01-05 14:42:00,
2013-01-05 09:47:00,30.4,21.5,30.29,South,183,0.0,0.0,69,0.00,,,0.00,63,WeatherTracker,2013-01-05 14:47:00,
2013-01-05 09:52:00,30.9,20.5,30.29,South,184,0.0,0.0,65,0.00,,,0.00,213,WeatherTracker,2013-01-05 14:52:00,
2013-01-05 09:57:00,31.4,21.7,30.29,SSE,162,0.0,0.0,67,0.00,,,0.00,144,WeatherTracker,2013-01-05 14:57:00,
2013-01-05 10:02:00,31.9,21.5,30.29,SSE,162,0.0,0.0,65,0.00,,,0.00,137,WeatherTracker,2013-01-05 15:02:00,
2013-01-05 10:07:00,31.9,20.4,30.28,North,5,0.0,0.0,62,0.00,,,0.00,190,WeatherTracker,2013-01-05 15:07:00,
2013-01-05 10:12:00,31.9,20.4,30.28,ENE,67,1.0,0.0,62,0.00,,,0.00,146,WeatherTracker,2013-01-05 15:12:00,
2013-01-05 10:17:00,32.1,20.2,30.28,East,88,0.0,0.0,61,0.00,,,0.00,137,WeatherTracker,2013-01-05 15:17:00,
2013-01-05 10:22:00,32.4,20.1,30.28,East,86,0.0,0.0,60,0.00,,,0.00,202,WeatherTracker,2013-01-05 15:22:00,
2013-01-05 10:27:00,32.8,20.1,30.28,East,92,2.0,0.0,59,0.00,,,0.00,174,WeatherTracker,2013-01-05 15:27:00,
2013-01-05 10:32:00,33.1,20.4,30.28,ESE,111,0.0,0.0,59,0.00,,,0.00,216,WeatherTracker,2013-01-05 15:32:00,
2013-01-05 10:37:00,33.4,20.2,30.27,ESE,111,0.0,0.0,58,0.00,,,0.00,255,WeatherTracker,2013-01-05 15:37:00,
2013-01-05 10:42:00,33.8,20.6,30.27,ESE,111,0.0,0.0,58,0.00,,,0.00,183,WeatherTracker,2013-01-05 15:42:00,
2013-01-05 10:47:00,34.1,21.3,30.27,ESE,111,0.0,0.0,59,0.00,,,0.00,192,WeatherTracker,2013-01-05 15:47:00,
2013-01-05 10:52:00,34.2,21.4,30.27,ESE,111,1.0,0.0,59,0.00,,,0.00,262,WeatherTracker,2013-01-05 15:52:00,
2013-01-05 10:57:00,34.4,21.6,30.27,West,266,0.0,0.0,59,0.00,,,0.00,302,WeatherTracker,2013-01-05 15:57:00,
2013-01-05 11:02:00,34.8,21.5,30.27,NE,35,0.0,0.0,58,0.00,,,0.00,195,WeatherTracker,2013-01-05 16:02:00,
2013-01-05 11:08:00,35.0,21.3,30.27,NE,35,0.0,0.0,57,0.00,,,0.00,397,WeatherTracker,2013-01-05 16:08:00,
2013-01-05 11:13:00,35.3,21.6,30.27,NE,34,0.0,0.0,57,0.00,,,0.00,343,WeatherTracker,2013-01-05 16:13:00,
2013-01-05 11:18:00,35.6,21.9,30.26,East,80,0.0,0.0,57,0.00,,,0.00,214,WeatherTracker,2013-01-05 16:18:00,
2013-01-05 11:23:00,36.2,22.5,30.26,NNW,345,2.0,0.0,57,0.00,,,0.00,403,WeatherTracker,2013-01-05 16:23:00,
2013-01-05 11:28:00,36.6,22.4,30.26,SE,138,0.0,0.0,56,0.00,,,0.00,461,WeatherTracker,2013-01-05 16:28:00,
2013-01-05 11:33:00,37.2,23.0,30.25,SE,139,1.0,0.0,56,0.00,,,0.00,387,WeatherTracker,2013-01-05 16:33:00,
2013-01-05 11:38:00,38.0,23.7,30.25,SE,139,0.0,0.0,56,0.00,,,0.00,380,WeatherTracker,2013-01-05 16:38:00,
2013-01-05 11:43:00,38.8,24.0,30.25,SE,138,0.0,0.0,55,0.00,,,0.00,478,WeatherTracker,2013-01-05 16:43:00,
2013-01-05 11:48:00,39.3,24.9,30.23,SE,139,0.0,0.0,56,0.00,,,0.00,454,WeatherTracker,2013-01-05 16:48:00,
2013-01-05 11:53:00,39.7,24.0,30.23,SE,142,0.0,0.0,53,0.00,,,0.00,313,WeatherTracker,2013-01-05 16:53:00,
2013-01-05 11:58:00,40.2,24.9,30.22,SE,142,0.0,0.0,54,0.00,,,0.00,295,WeatherTracker,2013-01-05 16:58:00,
2013-01-05 12:03:00,40.6,23.9,30.22,SE,142,0.0,0.0,51,0.00,,,0.00,255,WeatherTracker,2013-01-05 17:03:00,
2013-01-05 12:08:00,41.1,24.4,30.21,SE,142,0.0,0.0,51,0.00,,,0.00,234,WeatherTracker,2013-01-05 17:08:00,
2013-01-05 12:13:00,41.6,24.8,30.21,SE,142,0.0,0.0,51,0.00,,,0.00,236,WeatherTracker,2013-01-05 17:13:00,
2013-01-05 12:18:00,42.2,24.9,30.21,SE,142,0.0,0.0,50,0.00,,,0.00,195,WeatherTracker,2013-01-05 17:18:00,
2013-01-05 12:23:00,42.4,22.0,30.21,SW,215,0.0,0.0,44,0.00,,,0.00,162,WeatherTracker,2013-01-05 17:23:00,
2013-01-05 12:28:00,42.4,22.0,30.21,West,280,1.0,0.0,44,0.00,,,0.00,380,WeatherTracker,2013-01-05 17:28:00,
2013-01-05 12:33:00,42.3,23.0,30.20,West,280,0.0,0.0,46,0.00,,,0.00,438,WeatherTracker,2013-01-05 17:33:00,
2013-01-05 12:38:00,42.5,24.2,30.20,West,280,0.0,0.0,48,0.00,,,0.00,232,WeatherTracker,2013-01-05 17:38:00,
2013-01-05 12:43:00,42.7,23.9,30.20,WNW,283,0.0,0.0,47,0.00,,,0.00,299,WeatherTracker,2013-01-05 17:43:00,
2013-01-05 12:48:00,42.8,24.5,30.20,West,266,0.0,0.0,48,0.00,,,0.00,413,WeatherTracker,2013-01-05 17:48:00,
2013-01-05 12:53:00,42.9,23.6,30.20,West,277,1.0,0.0,46,0.00,,,0.00,118,WeatherTracker,2013-01-05 17:53:00,
2013-01-05 12:58:00,43.1,24.3,30.20,WNW,290,1.0,0.0,47,0.00,,,0.00,329,WeatherTracker,2013-01-05 17:58:00,
2013-01-05 13:03:00,43.4,24.5,30.20,WNW,290,0.0,0.0,47,0.00,,,0.00,339,WeatherTracker,2013-01-05 18:03:00,
2013-01-05 13:08:00,43.9,25.5,30.19,WNW,290,0.0,0.0,48,0.00,,,0.00,255,WeatherTracker,2013-01-05 18:08:00,
2013-01-05 13:14:00,44.3,25.4,30.19,WNW,290,0.0,0.0,47,0.00,,,0.00,251,WeatherTracker,2013-01-05 18:14:00,
2013-01-05 13:19:00,44.8,24.2,30.18,WSW,251,0.0,0.0,44,0.00,,,0.00,223,WeatherTracker,2013-01-05 18:19:00,
2013-01-05 13:24:00,45.2,24.6,30.18,WSW,250,0.0,0.0,44,0.00,,,0.00,322,WeatherTracker,2013-01-05 18:24:00,
2013-01-05 13:29:00,45.6,25.0,30.18,WSW,251,0.0,0.0,44,0.00,,,0.00,214,WeatherTracker,2013-01-05 18:29:00,
2013-01-05 13:34:00,46.0,24.2,30.18,WSW,252,0.0,0.0,42,0.00,,,0.00,306,WeatherTracker,2013-01-05 18:34:00,
2013-01-05 13:39:00,46.4,25.1,30.18,WSW,247,0.0,0.0,43,0.00,,,0.00,121,WeatherTracker,2013-01-05 18:39:00,
2013-01-05 13:44:00,46.5,25.2,30.18,West,278,0.0,0.0,43,0.00,,,0.00,176,WeatherTracker,2013-01-05 18:44:00,
2013-01-05 13:49:00,46.4,25.1,30.17,West,278,0.0,0.0,43,0.00,,,0.00,188,WeatherTracker,2013-01-05 18:49:00,
2013-01-05 13:54:00,46.3,25.6,30.17,West,277,1.0,0.0,44,0.00,,,0.00,237,WeatherTracker,2013-01-05 18:54:00,
2013-01-05 13:59:00,46.3,25.0,30.16,West,278,0.0,0.0,43,0.00,,,0.00,192,WeatherTracker,2013-01-05 18:59:00,
2013-01-05 14:04:00,46.4,25.7,30.16,SSW,202,1.0,0.0,44,0.00,,,0.00,162,WeatherTracker,2013-01-05 19:04:00,
2013-01-05 14:09:00,46.6,25.9,30.16,SSW,202,0.0,0.0,44,0.00,,,0.00,200,WeatherTracker,2013-01-05 19:09:00,
2013-01-05 14:14:00,46.8,25.5,30.16,SSW,202,0.0,0.0,43,0.00,,,0.00,195,WeatherTracker,2013-01-05 19:14:00,
2013-01-05 14:19:00,46.9,25.6,30.16,West,274,0.0,0.0,43,0.00,,,0.00,146,WeatherTracker,2013-01-05 19:19:00,
2013-01-05 14:24:00,46.9,25.0,30.16,NNE,28,0.0,0.0,42,0.00,,,0.00,141,WeatherTracker,2013-01-05 19:24:00,
2013-01-05 14:29:00,46.8,24.4,30.16,NNE,28,0.0,0.0,41,0.00,,,0.00,142,WeatherTracker,2013-01-05 19:29:00,
2013-01-05 14:34:00,46.8,24.9,30.16,NNE,28,0.0,0.0,42,0.00,,,0.00,142,WeatherTracker,2013-01-05 19:34:00,
2013-01-05 14:39:00,47.0,25.1,30.16,NNE,28,0.0,0.0,42,0.00,,,0.00,132,WeatherTracker,2013-01-05 19:39:00,
2013-01-05 14:44:00,47.2,25.3,30.16,NNE,28,0.0,0.0,42,0.00,,,0.00,139,WeatherTracker,2013-01-05 19:44:00,
2013-01-05 14:49:00,47.4,23.7,30.16,NNE,28,0.0,0.0,39,0.00,,,0.00,149,WeatherTracker,2013-01-05 19:49:00,
2013-01-05 14:54:00,47.3,23.0,30.16,NNE,28,2.0,0.0,38,0.00,,,0.00,102,WeatherTracker,2013-01-05 19:54:00,
2013-01-05 14:59:00,47.0,22.1,30.15,NNE,28,0.0,0.0,37,0.00,,,0.00,130,WeatherTracker,2013-01-05 19:59:00,
2013-01-05 15:05:00,46.8,24.4,30.16,NNE,28,0.0,0.0,41,0.00,,,0.00,123,WeatherTracker,2013-01-05 20:05:00,
2013-01-05 15:10:00,46.7,24.3,30.16,West,279,0.0,0.0,41,0.00,,,0.00,113,WeatherTracker,2013-01-05 20:10:00,
2013-01-05 15:15:00,46.7,24.8,30.15,West,279,0.0,0.0,42,0.00,,,0.00,109,WeatherTracker,2013-01-05 20:15:00,
2013-01-05 15:20:00,46.7,23.1,30.15,West,279,0.0,0.0,39,0.00,,,0.00,128,WeatherTracker,2013-01-05 20:20:00,
2013-01-05 15:25:00,46.7,22.5,30.15,West,279,0.0,0.0,38,0.00,,,0.00,100,WeatherTracker,2013-01-05 20:25:00,
2013-01-05 15:30:00,46.9,25.0,30.15,West,279,0.0,0.0,42,0.00,,,0.00,109,WeatherTracker,2013-01-05 20:30:00,
2013-01-05 15:35:00,46.9,22.6,30.15,West,279,0.0,0.0,38,0.00,,,0.00,105,WeatherTracker,2013-01-05 20:35:00,
2013-01-05 15:40:00,46.9,23.9,30.15,West,279,0.0,0.0,40,0.00,,,0.00,91,WeatherTracker,2013-01-05 20:40:00,
2013-01-05 15:45:00,46.8,23.2,30.15,West,279,0.0,0.0,39,0.00,,,0.00,104,WeatherTracker,2013-01-05 20:45:00,
2013-01-05 15:50:00,46.7,23.7,30.15,West,279,0.0,0.0,40,0.00,,,0.00,86,WeatherTracker,2013-01-05 20:50:00,
2013-01-05 15:55:00,46.5,24.7,30.15,West,279,0.0,0.0,42,0.00,,,0.00,72,WeatherTracker,2013-01-05 20:55:00,
2013-01-05 16:00:00,46.1,23.7,30.15,West,279,0.0,0.0,41,0.00,,,0.00,74,WeatherTracker,2013-01-05 21:00:00,
2013-01-05 16:05:00,45.8,24.0,30.15,West,279,0.0,0.0,42,0.00,,,0.00,77,WeatherTracker,2013-01-05 21:05:00,
2013-01-05 16:10:00,45.6,25.0,30.16,SSW,201,0.0,0.0,44,0.00,,,0.00,65,WeatherTracker,2013-01-05 21:10:00,
2013-01-05 16:15:00,45.2,24.0,30.15,SW,221,0.0,0.0,43,0.00,,,0.00,63,WeatherTracker,2013-01-05 21:15:00,
2013-01-05 16:20:00,45.0,25.0,30.16,SW,223,1.0,0.0,45,0.00,,,0.00,67,WeatherTracker,2013-01-05 21:20:00,
2013-01-05 16:25:00,44.7,24.7,30.16,SW,225,2.0,0.0,45,0.00,,,0.00,54,WeatherTracker,2013-01-05 21:25:00,
2013-01-05 16:30:00,44.3,24.3,30.16,SW,229,1.0,0.0,45,0.00,,,0.00,49,WeatherTracker,2013-01-05 21:30:00,
2013-01-05 16:35:00,44.0,24.0,30.16,SW,229,0.0,0.0,45,0.00,,,0.00,35,WeatherTracker,2013-01-05 21:35:00,
2013-01-05 16:40:00,43.6,24.2,30.16,SW,229,0.0,0.0,46,0.00,,,0.00,35,WeatherTracker,2013-01-05 21:40:00,
2013-01-05 16:45:00,43.3,24.4,30.16,SW,229,0.0,0.0,47,0.00,,,0.00,32,WeatherTracker,2013-01-05 21:45:00,
2013-01-05 16:50:00,43.0,24.2,30.16,SW,229,0.0,0.0,47,0.00,,,0.00,26,WeatherTracker,2013-01-05 21:50:00,
2013-01-05 16:55:00,42.8,25.0,30.16,SW,229,0.0,0.0,49,0.00,,,0.00,21,WeatherTracker,2013-01-05 21:55:00,
2013-01-05 17:00:00,42.5,26.1,30.16,SW,229,0.0,0.0,52,0.00,,,0.00,18,WeatherTracker,2013-01-05 22:00:00,
2013-01-05 17:06:00,42.3,25.9,30.16,SW,229,0.0,0.0,52,0.00,,,0.00,16,WeatherTracker,2013-01-05 22:06:00,
2013-01-05 17:11:00,42.1,27.1,30.16,SW,229,0.0,0.0,55,0.00,,,0.00,12,WeatherTracker,2013-01-05 22:11:00,
2013-01-05 17:16:00,41.8,27.3,30.16,SW,229,0.0,0.0,56,0.00,,,0.00,9,WeatherTracker,2013-01-05 22:16:00,
2013-01-05 17:21:00,41.7,26.7,30.16,SW,229,0.0,0.0,55,0.00,,,0.00,5,WeatherTracker,2013-01-05 22:21:00,
2013-01-05 17:26:00,41.5,25.7,30.16,SW,229,0.0,0.0,53,0.00,,,0.00,5,WeatherTracker,2013-01-05 22:26:00,
2013-01-05 17:31:00,41.2,26.3,30.15,SW,229,0.0,0.0,55,0.00,,,0.00,0,WeatherTracker,2013-01-05 22:31:00,
2013-01-05 17:36:00,41.1,27.0,30.16,SW,229,0.0,0.0,57,0.00,,,0.00,0,WeatherTracker,2013-01-05 22:36:00,
2013-01-05 17:41:00,40.9,26.4,30.16,SW,229,0.0,0.0,56,0.00,,,0.00,0,WeatherTracker,2013-01-05 22:41:00,
2013-01-05 17:46:00,40.8,26.8,30.16,SW,229,0.0,0.0,57,0.00,,,0.00,0,WeatherTracker,2013-01-05 22:46:00,
2013-01-05 17:51:00,40.7,25.4,30.16,SW,229,0.0,0.0,54,0.00,,,0.00,0,WeatherTracker,2013-01-05 22:51:00,
2013-01-05 17:56:00,40.7,25.4,30.16,SW,229,0.0,0.0,54,0.00,,,0.00,0,WeatherTracker,2013-01-05 22:56:00,
2013-01-05 18:01:00,40.6,26.6,30.16,SW,229,0.0,0.0,57,0.00,,,0.00,0,WeatherTracker,2013-01-05 23:01:00,
2013-01-05 18:06:00,40.5,26.9,30.16,SW,229,0.0,0.0,58,0.00,,,0.00,0,WeatherTracker,2013-01-05 23:06:00,
2013-01-05 18:11:00,40.4,27.2,30.16,SW,229,0.0,0.0,59,0.00,,,0.00,0,WeatherTracker,2013-01-05 23:11:00,
2013-01-05 18:16:00,40.3,27.1,30.16,SW,229,0.0,0.0,59,0.00,,,0.00,0,WeatherTracker,2013-01-05 23:16:00,
2013-01-05 18:21:00,40.2,25.3,30.16,SW,229,0.0,0.0,55,0.00,,,0.00,0,WeatherTracker,2013-01-05 23:21:00,
2013-01-05 18:26:00,40.1,26.1,30.16,SW,229,0.0,0.0,57,0.00,,,0.00,0,WeatherTracker,2013-01-05 23:26:00,
2013-01-05 18:31:00,40.0,25.6,30.16,SW,229,0.0,0.0,56,0.00,,,0.00,0,WeatherTracker,2013-01-05 23:31:00,
2013-01-05 18:36:00,39.8,26.2,30.17,SW,229,0.0,0.0,58,0.00,,,0.00,0,WeatherTracker,2013-01-05 23:36:00,
2013-01-05 18:41:00,39.7,24.9,30.17,SW,229,0.0,0.0,55,0.00,,,0.00,0,WeatherTracker,2013-01-05 23:41:00,
2013-01-05 18:46:00,39.7,25.7,30.17,SW,229,0.0,0.0,57,0.00,,,0.00,0,WeatherTracker,2013-01-05 23:46:00,
2013-01-05 18:51:00,39.5,24.7,30.17,SW,229,0.0,0.0,55,0.00,,,0.00,0,WeatherTracker,2013-01-05 23:51:00,
2013-01-05 18:56:00,39.4,26.3,30.16,ESE,123,1.0,0.0,59,0.00,,,0.00,0,WeatherTracker,2013-01-05 23:56:00,
2013-01-05 19:01:00,39.3,27.0,30.16,ESE,122,0.0,0.0,61,0.00,,,0.00,0,WeatherTracker,2013-01-06 00:01:00,
2013-01-05 19:06:00,39.2,27.7,30.16,ESE,123,0.0,0.0,63,0.00,,,0.00,0,WeatherTracker,2013-01-06 00:06:00,
2013-01-05 19:12:00,38.9,26.2,30.16,ESE,122,0.0,0.0,60,0.00,,,0.00,0,WeatherTracker,2013-01-06 00:12:00,
2013-01-05 19:17:00,38.6,26.3,30.16,ESE,122,0.0,0.0,61,0.00,,,0.00,0,WeatherTracker,2013-01-06 00:17:00,
2013-01-05 19:22:00,38.5,27.0,30.17,ESE,123,0.0,0.0,63,0.00,,,0.00,0,WeatherTracker,2013-01-06 00:22:00,
2013-01-05 19:27:00,38.4,26.9,30.17,ESE,122,0.0,0.0,63,0.00,,,0.00,0,WeatherTracker,2013-01-06 00:27:00,
2013-01-05 19:32:00,38.3,28.3,30.17,ESE,123,0.0,0.0,67,0.00,,,0.00,0,WeatherTracker,2013-01-06 00:32:00,
2013-01-05 19:37:00,38.3,29.4,30.17,ESE,123,0.0,0.0,70,0.00,,,0.00,0,WeatherTracker,2013-01-06 00:37:00,
2013-01-05 19:42:00,38.1,27.4,30.18,ESE,123,0.0,0.0,65,0.00,,,0.00,0,WeatherTracker,2013-01-06 00:42:00,
2013-01-05 19:47:00,37.9,26.8,30.18,ESE,123,0.0,0.0,64,0.00,,,0.00,0,WeatherTracker,2013-01-06 00:47:00,
2013-01-05 19:52:00,37.9,29.0,30.17,ESE,122,0.0,0.0,70,0.00,,,0.00,0,WeatherTracker,2013-01-06 00:52:00,
2013-01-05 19:57:00,37.8,28.6,30.16,ESE,111,0.0,0.0,69,0.00,,,0.00,0,WeatherTracker,2013-01-06 00:57:00,
2013-01-05 20:02:00,37.5,26.4,30.17,ESE,111,0.0,0.0,64,0.00,,,0.00,0,WeatherTracker,2013-01-06 01:02:00,
2013-01-05 20:07:00,37.4,26.0,30.17,ESE,111,0.0,0.0,63,0.00,,,0.00,0,WeatherTracker,2013-01-06 01:07:00,
2013-01-05 20:12:00,37.4,25.6,30.17,ESE,111,0.0,0.0,62,0.00,,,0.00,0,WeatherTracker,2013-01-06 01:12:00,
2013-01-05 20:17:00,37.5,27.2,30.17,ESE,111,0.0,0.0,66,0.00,,,0.00,0,WeatherTracker,2013-01-06 01:17:00,
2013-01-05 20:22:00,37.5,27.9,30.17,ESE,111,0.0,0.0,68,0.00,,,0.00,0,WeatherTracker,2013-01-06 01:22:00,
2013-01-05 20:27:00,37.5,28.3,30.17,ESE,111,0.0,0.0,69,0.00,,,0.00,0,WeatherTracker,2013-01-06 01:27:00,
2013-01-05 20:32:00,37.5,28.6,30.17,ESE,111,0.0,0.0,70,0.00,,,0.00,0,WeatherTracker,2013-01-06 01:32:00,
2013-01-05 20:37:00,37.5,27.9,30.17,ESE,111,1.0,0.0,68,0.00,,,0.00,0,WeatherTracker,2013-01-06 01:37:00,
2013-01-05 20:43:00,37.4,27.1,30.18,ESE,111,0.0,0.0,66,0.00,,,0.00,0,WeatherTracker,2013-01-06 01:43:00,
2013-01-05 20:48:00,37.4,27.8,30.17,ESE,111,0.0,0.0,68,0.00,,,0.00,0,WeatherTracker,2013-01-06 01:48:00,
2013-01-05 20:53:00,37.4,27.5,30.18,SE,134,0.0,0.0,67,0.00,,,0.00,0,WeatherTracker,2013-01-06 01:53:00,
2013-01-05 20:58:00,37.4,27.1,30.18,SE,134,0.0,0.0,66,0.00,,,0.00,0,WeatherTracker,2013-01-06 01:58:00,
2013-01-05 21:03:00,37.4,26.7,30.18,SE,133,0.0,0.0,65,0.00,,,0.00,0,WeatherTracker,2013-01-06 02:03:00,
2013-01-05 21:08:00,37.4,26.4,30.18,West,268,0.0,0.0,64,0.00,,,0.00,0,WeatherTracker,2013-01-06 02:08:00,
2013-01-05 21:13:00,37.4,27.1,30.18,West,269,0.0,0.0,66,0.00,,,0.00,0,WeatherTracker,2013-01-06 02:13:00,
2013-01-05 21:18:00,37.4,27.1,30.18,West,269,0.0,0.0,66,0.00,,,0.00,0,WeatherTracker,2013-01-06 02:18:00,
2013-01-05 21:23:00,37.4,26.4,30.17,West,269,0.0,0.0,64,0.00,,,0.00,0,WeatherTracker,2013-01-06 02:23:00,
2013-01-05 21:28:00,37.5,26.8,30.17,West,269,0.0,0.0,65,0.00,,,0.00,0,WeatherTracker,2013-01-06 02:28:00,
2013-01-05 21:33:00,37.5,26.8,30.17,West,273,0.0,0.0,65,0.00,,,0.00,0,WeatherTracker,2013-01-06 02:33:00,
2013-01-05 21:38:00,37.5,26.8,30.16,WSW,238,0.0,0.0,65,0.00,,,0.00,0,WeatherTracker,2013-01-06 02:38:00,
2013-01-05 21:43:00,37.5,26.8,30.15,WSW,238,0.0,0.0,65,0.00,,,0.00,0,WeatherTracker,2013-01-06 02:43:00,
2013-01-05 21:48:00,37.6,27.7,30.15,WSW,238,0.0,0.0,67,0.00,,,0.00,0,WeatherTracker,2013-01-06 02:48:00,
2013-01-05 21:53:00,37.5,27.2,30.16,WSW,238,0.0,0.0,66,0.00,,,0.00,0,WeatherTracker,2013-01-06 02:53:00,
2013-01-05 21:58:00,37.5,26.8,30.15,WSW,238,0.0,0.0,65,0.00,,,0.00,0,WeatherTracker,2013-01-06 02:58:00,
2013-01-05 22:03:00,37.5,27.9,30.14,WSW,238,0.0,0.0,68,0.00,,,0.00,0,WeatherTracker,2013-01-06 03:03:00,
2013-01-05 22:08:00,37.5,27.9,30.14,WSW,238,0.0,0.0,68,0.00,,,0.00,0,WeatherTracker,2013-01-06 03:08:00,
2013-01-05 22:13:00,37.4,28.2,30.13,WSW,238,0.0,0.0,69,0.00,,,0.00,0,WeatherTracker,2013-01-06 03:13:00,
2013-01-05 22:19:00,37.3,28.4,30.13,WSW,238,0.0,0.0,70,0.00,,,0.00,0,WeatherTracker,2013-01-06 03:19:00,
2013-01-05 22:24:00,37.3,29.1,30.13,WSW,238,0.0,0.0,72,0.00,,,0.00,0,WeatherTracker,2013-01-06 03:24:00,
2013-01-05 22:29:00,37.1,28.6,30.13,WSW,238,0.0,0.0,71,0.00,,,0.00,0,WeatherTracker,2013-01-06 03:29:00,
2013-01-05 22:34:00,37.0,28.5,30.13,WSW,238,0.0,0.0,71,0.00,,,0.00,0,WeatherTracker,2013-01-06 03:34:00,
2013-01-05 22:39:00,37.0,28.5,30.12,WSW,238,0.0,0.0,71,0.00,,,0.00,0,WeatherTracker,2013-01-06 03:39:00,
2013-01-05 22:44:00,37.0,28.1,30.12,WSW,238,0.0,0.0,70,0.00,,,0.00,0,WeatherTracker,2013-01-06 03:44:00,
2013-01-05 22:49:00,37.0,27.8,30.13,WSW,238,0.0,0.0,69,0.00,,,0.00,0,WeatherTracker,2013-01-06 03:49:00,
2013-01-05 22:54:00,36.9,28.4,30.13,WSW,240,0.0,0.0,71,0.00,,,0.00,0,WeatherTracker,2013-01-06 03:54:00,
2013-01-05 22:59:00,36.7,28.9,30.13,WSW,240,0.0,0.0,73,0.00,,,0.00,0,WeatherTracker,2013-01-06 03:59:00,
2013-01-05 23:04:00,36.4,29.6,30.12,WSW,240,0.0,0.0,76,0.00,,,0.00,0,WeatherTracker,2013-01-06 04:04:00,
2013-01-05 23:09:00,36.1,30.2,30.12,WSW,240,0.0,0.0,79,0.00,,,0.00,0,WeatherTracker,2013-01-06 04:09:00,
2013-01-05 23:14:00,35.8,30.2,30.12,WSW,240,0.0,0.0,80,0.00,,,0.00,0,WeatherTracker,2013-01-06 04:14:00,
2013-01-05 23:19:00,35.6,30.4,30.12,WSW,240,0.0,0.0,81,0.00,,,0.00,0,WeatherTracker,2013-01-06 04:19:00,
2013-01-05 23:24:00,35.5,30.9,30.12,WSW,240,0.0,0.0,83,0.00,,,0.00,0,WeatherTracker,2013-01-06 04:24:00,
2013-01-05 23:29:00,35.4,31.3,30.12,WSW,240,0.0,0.0,85,0.00,,,0.00,0,WeatherTracker,2013-01-06 04:29:00,
2013-01-05 23:34:00,35.4,31.3,30.12,WSW,240,0.0,0.0,85,0.00,,,0.00,0,WeatherTracker,2013-01-06 04:34:00,
2013-01-05 23:39:00,35.3,31.2,30.12,WSW,240,0.0,0.0,85,0.00,,,0.00,0,WeatherTracker,2013-01-06 04:39:00,
2013-01-05 23:44:00,35.1,31.3,30.12,WSW,240,0.0,0.0,86,0.00,,,0.00,0,WeatherTracker,2013-01-06 04:44:00,
2013-01-05 23:50:00,35.0,31.2,30.11,WSW,240,0.0,0.0,86,0.00,,,0.00,0,WeatherTracker,2013-01-06 04:50:00,
2013-01-05 23:55:00,34.9,31.4,30.11,WSW,240,0.0,0.0,87,0.00,,,0.00,0,WeatherTracker,2013-01-06 04:55:00,